createdAt,value
2018-03-01T00:02:16.281Z,42.79
2018-03-01T00:04:43.955Z,43.02
2018-03-01T00:07:11.755Z,42.67
2018-03-01T00:09:39.595Z,42.65
2018-03-01T00:12:07.442Z,42.44
2018-03-01T00:14:35.308Z,42.84
2018-03-01T00:17:03.179Z,42.57
2018-03-01T00:19:30.937Z,42.60
2018-03-01T00:21:58.704Z,42.29
2018-03-01T00:24:26.357Z,42.15
2018-03-01T00:26:54.229Z,42.59
2018-03-01T00:29:21.969Z,42.45
2018-03-01T00:31:49.709Z,42.71
2018-03-01T00:34:17.530Z,42.66
2018-03-01T00:36:45.389Z,42.26
2018-03-01T00:39:13.152Z,42.17
2018-03-01T00:41:40.830Z,42.16
2018-03-01T00:44:08.637Z,42.42
2018-03-01T00:46:36.444Z,42.10
2018-03-01T00:49:04.315Z,42.10
2018-03-01T00:51:32.075Z,42.13
2018-03-01T00:53:59.951Z,42.29
2018-03-01T00:56:27.603Z,42.52
2018-03-01T00:58:55.470Z,42.10
2018-03-01T01:01:23.235Z,42.50
2018-03-01T01:03:51.063Z,42.57
2018-03-01T01:06:18.868Z,42.55
2018-03-01T01:08:46.731Z,42.45
2018-03-01T01:11:14.700Z,42.11
2018-03-01T01:13:42.536Z,42.11
2018-03-01T01:16:10.170Z,42.04
2018-03-01T01:18:37.841Z,42.16
2018-03-01T01:21:05.452Z,41.67
2018-03-01T01:23:33.108Z,41.97
2018-03-01T01:26:00.724Z,42.31
2018-03-01T01:28:28.388Z,42.32
2018-03-01T01:30:56.008Z,42.12
2018-03-01T01:33:23.670Z,42.15
2018-03-01T01:35:51.350Z,42.41
2018-03-01T01:38:19.042Z,42.17
2018-03-01T01:40:46.716Z,42.81
2018-03-01T01:43:14.376Z,42.32
2018-03-01T01:45:42.000Z,42.49
2018-03-01T01:48:09.710Z,42.24
2018-03-01T01:50:49.293Z,42.02
2018-03-01T01:53:16.961Z,41.94
2018-03-01T01:55:44.586Z,42.68
2018-03-01T01:58:12.248Z,42.17
2018-03-01T02:00:39.889Z,42.54
2018-03-01T02:03:07.569Z,42.15
2018-03-01T02:05:35.188Z,42.47
2018-03-01T02:08:02.855Z,42.34
2018-03-01T02:10:30.498Z,42.58
2018-03-01T02:12:58.171Z,42.02
2018-03-01T02:15:25.787Z,42.46
2018-03-01T02:17:53.462Z,42.58
2018-03-01T02:20:21.086Z,42.47
2018-03-01T02:22:48.747Z,42.23
2018-03-01T02:25:16.360Z,42.50
2018-03-01T02:27:44.057Z,42.27
2018-03-01T02:30:17.535Z,42.42
2018-03-01T02:32:45.257Z,42.82
2018-03-01T02:35:12.872Z,42.89
2018-03-01T02:37:40.549Z,42.40
2018-03-01T02:40:08.181Z,42.96
2018-03-01T02:42:35.853Z,42.53
2018-03-01T02:45:03.668Z,42.88
2018-03-01T02:47:31.423Z,43.12
2018-03-01T02:49:59.290Z,42.74
2018-03-01T02:52:27.156Z,42.70
2018-03-01T02:54:54.963Z,42.89
2018-03-01T02:57:22.624Z,43.04
2018-03-01T02:59:50.450Z,42.55
2018-03-01T03:02:20.976Z,42.30
2018-03-01T03:04:48.700Z,42.66
2018-03-01T03:07:16.472Z,42.60
2018-03-01T03:09:44.270Z,42.61
2018-03-01T03:12:12.040Z,42.65
2018-03-01T03:14:39.813Z,42.57
2018-03-01T03:17:07.503Z,42.60
2018-03-01T03:19:35.325Z,42.63
2018-03-01T03:22:02.980Z,42.68
2018-03-01T03:24:30.853Z,42.55
2018-03-01T03:26:58.565Z,42.59
2018-03-01T03:29:26.381Z,42.68
2018-03-01T03:31:54.145Z,42.77
2018-03-01T03:34:22.012Z,42.56
2018-03-01T03:36:49.884Z,42.58
2018-03-01T03:39:17.694Z,43.00
2018-03-01T03:41:45.401Z,43.21
2018-03-01T03:44:13.166Z,42.98
2018-03-01T03:46:40.934Z,42.74
2018-03-01T03:49:08.810Z,43.05
2018-03-01T03:51:36.561Z,43.01
2018-03-01T03:54:04.221Z,43.20
2018-03-01T03:56:31.866Z,42.93
2018-03-01T03:58:59.525Z,43.10
2018-03-01T04:01:27.136Z,43.13
2018-03-01T04:03:54.853Z,42.82
2018-03-01T04:06:22.466Z,43.01
2018-03-01T04:08:50.195Z,43.24
2018-03-01T04:11:17.968Z,43.24
2018-03-01T04:13:45.827Z,43.02
2018-03-01T04:16:13.479Z,43.24
2018-03-01T04:18:41.254Z,43.46
2018-03-01T04:21:08.926Z,43.31
2018-03-01T04:23:36.780Z,42.95
2018-03-01T04:26:04.545Z,42.92
2018-03-01T04:28:32.416Z,43.17
2018-03-01T04:31:00.122Z,43.35
2018-03-01T04:33:27.938Z,43.55
2018-03-01T04:35:55.703Z,43.14
2018-03-01T04:38:23.468Z,43.45
2018-03-01T04:40:51.232Z,43.88
2018-03-01T04:43:19.099Z,43.74
2018-03-01T04:45:46.819Z,43.96
2018-03-01T04:48:14.728Z,43.54
2018-03-01T04:50:42.447Z,44.20
2018-03-01T04:53:10.257Z,44.48
2018-03-01T04:55:37.978Z,44.47
2018-03-01T04:58:05.917Z,44.25
2018-03-01T05:00:33.783Z,44.53
2018-03-01T05:03:01.409Z,44.48
2018-03-01T05:05:29.281Z,43.78
2018-03-01T05:07:57.013Z,43.85
2018-03-01T05:10:24.747Z,43.51
2018-03-01T05:12:52.471Z,43.97
2018-03-01T05:15:20.213Z,44.30
2018-03-01T05:17:47.947Z,44.01
2018-03-01T05:20:15.764Z,44.10
2018-03-01T05:22:43.433Z,44.12
2018-03-01T05:25:11.241Z,44.33
2018-03-01T05:27:39.055Z,44.79
2018-03-01T05:30:06.772Z,44.21
2018-03-01T05:32:34.481Z,43.95
2018-03-01T05:35:02.347Z,43.89
2018-03-01T05:37:30.113Z,44.49
2018-03-01T05:39:57.985Z,44.29
2018-03-01T05:42:25.741Z,44.39
2018-03-01T05:44:53.506Z,44.80
2018-03-01T05:47:21.269Z,43.93
2018-03-01T05:49:49.155Z,44.35
2018-03-01T05:52:16.889Z,44.52
2018-03-01T05:54:44.704Z,44.50
2018-03-01T05:57:12.448Z,43.70
2018-03-01T05:59:40.192Z,43.81
2018-03-01T06:02:07.905Z,43.97
2018-03-01T06:04:35.915Z,44.31
2018-03-01T06:07:03.690Z,44.00
2018-03-01T06:09:31.595Z,44.05
2018-03-01T06:11:59.423Z,44.11
2018-03-01T06:14:27.253Z,43.84
2018-03-01T06:16:55.054Z,44.13
2018-03-01T06:19:22.785Z,43.90
2018-03-01T06:21:50.583Z,43.68
2018-03-01T06:24:18.295Z,43.65
2018-03-01T06:26:46.061Z,43.53
2018-03-01T06:29:13.677Z,43.64
2018-03-01T06:31:41.388Z,43.25
2018-03-01T06:34:09.008Z,42.76
2018-03-01T06:36:36.725Z,43.00
2018-03-01T06:39:04.420Z,42.98
2018-03-01T06:41:32.088Z,42.79
2018-03-01T06:44:00.174Z,43.08
2018-03-01T06:46:28.030Z,43.25
2018-03-01T06:48:55.723Z,43.02
2018-03-01T06:51:23.444Z,42.47
2018-03-01T06:53:51.453Z,42.39
2018-03-01T06:56:19.172Z,42.61
2018-03-01T06:58:47.595Z,42.95
2018-03-01T07:01:15.528Z,42.43
2018-03-01T07:03:43.146Z,42.38
2018-03-01T07:06:10.817Z,42.65
2018-03-01T07:08:38.452Z,42.35
2018-03-01T07:11:06.129Z,42.00
2018-03-01T07:13:33.764Z,41.49
2018-03-01T07:16:01.441Z,41.99
2018-03-01T07:18:29.138Z,41.73
2018-03-01T07:20:56.771Z,41.82
2018-03-01T07:23:24.442Z,41.89
2018-03-01T07:25:52.052Z,42.18
2018-03-01T07:28:19.724Z,41.68
2018-03-01T07:30:47.620Z,41.62
2018-03-01T07:33:15.390Z,41.65
2018-03-01T07:35:43.020Z,42.12
2018-03-01T07:38:11.597Z,42.16
2018-03-01T07:40:40.265Z,42.00
2018-03-01T07:43:08.796Z,41.94
2018-03-01T07:45:37.774Z,41.90
2018-03-01T07:48:07.324Z,42.48
2018-03-01T07:50:34.998Z,42.20
2018-03-01T07:53:03.049Z,41.95
2018-03-01T07:55:30.698Z,41.95
2018-03-01T07:57:58.398Z,42.29
2018-03-01T08:00:26.039Z,42.17
2018-03-01T08:02:53.704Z,42.50
2018-03-01T08:05:21.432Z,41.85
2018-03-01T08:07:49.252Z,42.04
2018-03-01T08:10:16.917Z,41.84
2018-03-01T08:12:44.614Z,41.40
2018-03-01T08:15:12.297Z,41.26
2018-03-01T08:17:40.003Z,41.46
2018-03-01T08:20:08.414Z,41.55
2018-03-01T08:22:36.068Z,41.14
2018-03-01T08:25:03.761Z,41.16
2018-03-01T08:27:31.448Z,40.93
2018-03-01T08:30:01.049Z,40.41
2018-03-01T08:32:28.663Z,40.71
2018-03-01T08:34:56.399Z,40.14
2018-03-01T08:37:24.034Z,39.89
2018-03-01T08:39:51.700Z,40.04
2018-03-01T08:42:19.344Z,39.78
2018-03-01T08:44:47.000Z,38.95
2018-03-01T08:47:14.612Z,39.04
2018-03-01T08:49:42.279Z,38.44
2018-03-01T08:52:09.992Z,38.10
2018-03-01T08:54:37.757Z,38.03
2018-03-01T08:57:05.403Z,38.06
2018-03-01T08:59:33.014Z,38.01
2018-03-01T09:02:00.678Z,37.49
2018-03-01T09:04:28.340Z,37.29
2018-03-01T09:06:56.020Z,37.40
2018-03-01T09:09:23.638Z,37.13
2018-03-01T09:11:51.299Z,37.27
2018-03-01T09:14:18.933Z,36.44
2018-03-01T09:16:46.616Z,36.20
2018-03-01T09:19:14.256Z,35.22
2018-03-01T09:21:41.923Z,34.85
2018-03-01T09:24:09.561Z,34.35
2018-03-01T09:26:37.237Z,34.65
2018-03-01T09:29:04.866Z,33.94
2018-03-01T09:31:32.530Z,33.73
2018-03-01T09:34:00.184Z,34.04
2018-03-01T09:36:28.040Z,34.32
2018-03-01T09:38:55.808Z,34.11
2018-03-01T09:41:23.672Z,32.87
2018-03-01T09:43:52.286Z,32.17
2018-03-01T09:46:20.230Z,31.03
2018-03-01T09:48:47.972Z,29.63
2018-03-01T09:51:15.858Z,28.17
2018-03-01T09:53:43.635Z,28.08
2018-03-01T09:56:12.056Z,28.60
2018-03-01T09:58:39.683Z,27.13
2018-03-01T10:01:07.377Z,26.96
2018-03-01T10:03:34.997Z,26.53
2018-03-01T10:06:02.678Z,27.08
2018-03-01T10:08:30.321Z,28.01
2018-03-01T10:10:58.017Z,27.51
2018-03-01T10:13:25.645Z,27.56
2018-03-01T10:15:53.323Z,27.52
2018-03-01T10:18:21.106Z,27.85
2018-03-01T10:20:48.764Z,28.15
2018-03-01T10:23:16.402Z,27.21
2018-03-01T10:25:44.074Z,27.69
2018-03-01T10:28:11.724Z,27.58
2018-03-01T10:30:39.409Z,27.58
2018-03-01T10:33:07.047Z,28.24
2018-03-01T10:35:34.715Z,27.78
2018-03-01T10:38:02.350Z,28.33
2018-03-01T10:40:30.089Z,27.99
2018-03-01T10:42:57.777Z,27.72
2018-03-01T10:45:25.441Z,28.06
2018-03-01T10:47:53.080Z,27.65
2018-03-01T10:50:20.737Z,27.49
2018-03-01T10:52:48.371Z,27.13
2018-03-01T10:55:16.042Z,27.41
2018-03-01T10:57:43.677Z,27.57
2018-03-01T11:00:11.496Z,27.61
2018-03-01T11:02:39.100Z,27.29
2018-03-01T11:05:06.806Z,27.13
2018-03-01T11:07:34.480Z,26.98
2018-03-01T11:10:02.160Z,26.73
2018-03-01T11:12:29.846Z,27.16
2018-03-01T11:14:57.488Z,27.45
2018-03-01T11:17:25.168Z,27.17
2018-03-01T11:19:52.852Z,27.06
2018-03-01T11:22:20.568Z,27.63
2018-03-01T11:24:48.315Z,27.57
2018-03-01T11:27:15.976Z,26.60
2018-03-01T11:29:43.604Z,26.20
2018-03-01T11:32:11.269Z,26.20
2018-03-01T11:34:38.938Z,26.42
2018-03-01T11:37:06.612Z,26.79
2018-03-01T11:39:34.270Z,26.32
2018-03-01T11:42:01.989Z,25.97
2018-03-01T11:44:29.609Z,26.55
2018-03-01T11:46:57.266Z,26.17
2018-03-01T11:49:24.876Z,26.28
2018-03-01T11:51:52.543Z,25.40
2018-03-01T11:54:20.157Z,25.24
2018-03-01T11:56:47.824Z,25.63
2018-03-01T11:59:15.465Z,25.88
2018-03-01T12:01:43.152Z,25.79
2018-03-01T12:04:10.786Z,25.97
2018-03-01T12:06:38.451Z,26.15
2018-03-01T12:09:06.600Z,26.21
2018-03-01T12:11:34.263Z,26.85
2018-03-01T12:14:01.885Z,26.05
2018-03-01T12:16:29.567Z,25.94
2018-03-01T12:18:57.199Z,25.95
2018-03-01T12:21:24.864Z,25.99
2018-03-01T12:23:52.541Z,26.04
2018-03-01T12:26:20.244Z,26.10
2018-03-01T12:28:47.893Z,25.56
2018-03-01T12:31:15.556Z,25.56
2018-03-01T12:33:43.184Z,25.51
2018-03-01T12:36:10.852Z,25.36
2018-03-01T12:38:38.478Z,24.73
2018-03-01T12:41:06.203Z,24.05
2018-03-01T12:43:33.833Z,24.42
2018-03-01T12:46:01.496Z,24.46
2018-03-01T12:48:29.116Z,23.63
2018-03-01T12:50:56.838Z,24.23
2018-03-01T12:53:24.517Z,24.32
2018-03-01T12:55:52.400Z,24.42
2018-03-01T12:58:20.053Z,24.44
2018-03-01T13:00:47.873Z,24.20
2018-03-01T13:03:15.527Z,24.23
2018-03-01T13:05:43.244Z,24.51
2018-03-01T13:08:10.904Z,24.44
2018-03-01T13:10:38.640Z,24.40
2018-03-01T13:13:06.442Z,24.09
2018-03-01T13:15:34.258Z,24.63
2018-03-01T13:18:02.066Z,23.74
2018-03-01T13:20:29.768Z,24.28
2018-03-01T13:22:57.635Z,23.97
2018-03-01T13:25:25.292Z,24.09
2018-03-01T13:27:53.013Z,24.17
2018-03-01T13:30:23.032Z,23.40
2018-03-01T13:33:06.470Z,23.83
2018-03-01T13:38:29.631Z,23.38
2018-03-01T13:40:58.031Z,23.88
2018-03-01T13:43:29.587Z,23.78
2018-03-01T13:45:59.476Z,24.35
2018-03-01T13:48:34.433Z,24.42
2018-03-01T13:51:04.073Z,24.11
2018-03-01T13:53:34.073Z,23.93
2018-03-01T13:56:02.399Z,23.76
2018-03-01T13:58:32.214Z,24.08
2018-03-01T14:01:01.341Z,24.28
2018-03-01T14:03:30.713Z,23.70
2018-03-01T14:06:11.757Z,23.52
2018-03-01T14:08:40.300Z,23.09
2018-03-01T14:11:10.888Z,22.91
2018-03-01T14:13:39.414Z,22.98
2018-03-01T14:16:08.419Z,23.50
2018-03-01T14:18:40.325Z,23.20
2018-03-01T14:21:09.367Z,23.24
2018-03-01T14:23:38.412Z,22.63
2018-03-01T14:26:17.290Z,23.19
2018-03-01T14:29:00.380Z,23.83
2018-03-01T14:31:29.662Z,23.86
2018-03-01T14:33:59.290Z,23.54
2018-03-01T14:36:40.431Z,23.67
2018-03-01T14:39:09.576Z,23.60
2018-03-01T14:41:38.073Z,23.58
2018-03-01T14:44:07.035Z,23.66
2018-03-01T14:46:50.070Z,23.81
2018-03-01T14:49:18.446Z,23.95
2018-03-01T14:51:47.744Z,23.91
2018-03-01T14:54:16.589Z,23.93
2018-03-01T14:56:46.204Z,23.43
2018-03-01T14:59:14.629Z,23.83
2018-03-01T15:01:43.118Z,23.71
2018-03-01T15:04:11.555Z,23.60
2018-03-01T15:06:39.766Z,22.83
2018-03-01T15:09:08.272Z,23.15
2018-03-01T15:11:36.632Z,23.47
2018-03-01T15:14:11.587Z,23.50
2018-03-01T15:16:41.560Z,23.95
2018-03-01T15:19:10.834Z,24.09
2018-03-01T15:21:39.649Z,24.41
2018-03-01T15:24:08.335Z,24.59
2018-03-01T15:26:47.748Z,24.28
2018-03-01T15:29:30.255Z,24.44
2018-03-01T15:31:58.688Z,24.75
2018-03-01T15:34:27.286Z,24.28
2018-03-01T15:36:57.533Z,24.39
2018-03-01T15:39:26.530Z,24.54
2018-03-01T15:42:04.470Z,25.23
2018-03-01T15:44:33.185Z,24.76
2018-03-01T15:47:01.855Z,25.00
2018-03-01T15:49:32.937Z,24.84
2018-03-01T15:52:23.804Z,24.55
2018-03-01T15:54:54.307Z,24.98
2018-03-01T15:57:25.888Z,24.90
2018-03-01T15:59:58.758Z,25.07
2018-03-01T16:02:27.987Z,24.91
2018-03-01T16:04:58.956Z,24.81
2018-03-01T16:07:27.662Z,24.74
2018-03-01T16:09:55.822Z,24.42
2018-03-01T16:12:24.305Z,24.78
2018-03-01T16:14:56.305Z,24.26
2018-03-01T16:17:24.637Z,23.97
2018-03-01T16:19:53.411Z,24.13
2018-03-01T16:22:22.259Z,24.20
2018-03-01T16:24:50.953Z,24.30
2018-03-01T16:27:22.042Z,24.43
2018-03-01T16:29:50.438Z,24.49
2018-03-01T16:32:20.233Z,24.42
2018-03-01T16:34:50.691Z,24.77
2018-03-01T16:37:19.774Z,24.98
2018-03-01T16:39:48.646Z,25.13
2018-03-01T16:42:19.489Z,24.94
2018-03-01T16:44:49.333Z,24.90
2018-03-01T16:47:20.534Z,24.58
2018-03-01T16:49:51.048Z,24.94
2018-03-01T16:52:20.207Z,24.88
2018-03-01T16:54:49.327Z,24.80
2018-03-01T16:57:18.924Z,25.38
2018-03-01T16:59:48.655Z,25.18
2018-03-01T17:02:20.277Z,25.23
2018-03-01T17:04:56.849Z,24.94
2018-03-01T17:07:26.745Z,25.13
2018-03-01T17:09:57.199Z,25.24
2018-03-01T17:12:25.912Z,25.41
2018-03-01T17:14:54.273Z,25.43
2018-03-01T17:17:22.867Z,25.18
2018-03-01T17:19:51.094Z,25.35
2018-03-01T17:22:19.430Z,25.17
2018-03-01T17:24:47.619Z,25.69
2018-03-01T17:27:15.879Z,25.48
2018-03-01T17:29:43.901Z,25.32
2018-03-01T17:32:12.236Z,25.30
2018-03-01T17:34:41.144Z,25.17
2018-03-01T17:37:09.584Z,25.43
2018-03-01T17:39:37.955Z,25.43
2018-03-01T17:42:06.243Z,25.46
2018-03-01T17:44:34.568Z,25.87
2018-03-01T17:47:02.815Z,25.40
2018-03-01T17:49:30.960Z,25.69
2018-03-01T17:51:59.036Z,25.70
2018-03-01T17:54:28.074Z,26.30
2018-03-01T17:56:56.284Z,26.42
2018-03-01T17:59:28.328Z,26.44
2018-03-01T18:01:56.401Z,26.77
2018-03-01T18:04:25.677Z,26.83
2018-03-01T18:06:53.919Z,27.19
2018-03-01T18:09:22.101Z,27.21
2018-03-01T18:11:50.183Z,26.73
2018-03-01T18:14:18.272Z,27.17
2018-03-01T18:16:46.420Z,27.43
2018-03-01T18:19:14.649Z,27.42
2018-03-01T18:21:42.933Z,26.45
2018-03-01T18:24:11.174Z,26.82
2018-03-01T18:26:39.256Z,26.81
2018-03-01T18:29:07.209Z,26.97
2018-03-01T18:31:35.288Z,27.17
2018-03-01T18:34:03.341Z,26.85
2018-03-01T18:36:31.453Z,26.68
2018-03-01T18:38:59.420Z,26.97
2018-03-01T18:41:27.520Z,27.05
2018-03-01T18:43:55.583Z,26.84
2018-03-01T18:46:23.906Z,26.99
2018-03-01T18:48:52.026Z,27.46
2018-03-01T18:51:19.967Z,27.13
2018-03-01T18:53:47.903Z,27.53
2018-03-01T18:56:15.760Z,27.53
2018-03-01T18:58:43.825Z,27.28
2018-03-01T19:01:11.921Z,27.48
2018-03-01T19:03:40.111Z,26.91
2018-03-01T19:06:08.192Z,27.12
2018-03-01T19:08:36.158Z,27.29
2018-03-01T19:11:04.489Z,27.24
2018-03-01T19:13:32.556Z,27.26
2018-03-01T19:16:00.635Z,27.73
2018-03-01T19:18:28.647Z,27.94
2018-03-01T19:20:56.798Z,27.40
2018-03-01T19:23:24.758Z,27.44
2018-03-01T19:25:52.721Z,27.41
2018-03-01T19:28:20.804Z,27.20
2018-03-01T19:30:49.005Z,26.62
2018-03-01T19:33:17.082Z,27.02
2018-03-01T19:35:45.251Z,27.17
2018-03-01T19:38:13.485Z,27.49
2018-03-01T19:40:41.569Z,27.47
2018-03-01T19:43:09.693Z,27.79
2018-03-01T19:45:37.738Z,27.58
2018-03-01T19:48:05.936Z,27.73
2018-03-01T19:50:34.135Z,27.79
2018-03-01T19:53:02.343Z,27.79
2018-03-01T19:55:30.416Z,27.96
2018-03-01T19:57:58.593Z,27.73
2018-03-01T20:00:26.580Z,27.62
2018-03-01T20:02:54.658Z,28.21
2018-03-01T20:05:22.750Z,28.30
2018-03-01T20:07:50.699Z,28.56
2018-03-01T20:10:18.664Z,28.69
2018-03-01T20:12:46.960Z,29.02
2018-03-01T20:15:15.189Z,29.28
2018-03-01T20:17:43.392Z,29.53
2018-03-01T20:20:11.596Z,29.36
2018-03-01T20:22:39.681Z,29.14
2018-03-01T20:25:07.757Z,29.23
2018-03-01T20:27:35.837Z,29.56
2018-03-01T20:30:03.920Z,29.29
2018-03-01T20:32:31.999Z,29.47
2018-03-01T20:35:00.164Z,29.52
2018-03-01T20:37:28.279Z,29.57
2018-03-01T20:39:56.443Z,29.91
2018-03-01T20:42:24.564Z,29.53
2018-03-01T20:44:52.675Z,29.81
2018-03-01T20:47:20.968Z,29.90
2018-03-01T20:52:42.805Z,29.77
2018-03-01T20:55:10.896Z,29.64
2018-03-01T20:57:38.972Z,29.78
2018-03-01T21:00:06.930Z,29.90
2018-03-01T21:02:34.893Z,29.57
2018-03-01T21:05:02.848Z,30.13
2018-03-01T21:07:30.816Z,29.85
2018-03-01T21:09:58.857Z,30.08
2018-03-01T21:12:26.980Z,29.89
2018-03-01T21:14:54.816Z,29.84
2018-03-01T21:17:22.656Z,30.00
2018-03-01T21:19:50.803Z,29.63
2018-03-01T21:22:18.942Z,29.82
2018-03-01T21:24:47.019Z,30.12
2018-03-01T21:27:15.101Z,30.01
2018-03-01T21:29:43.193Z,30.36
2018-03-01T21:32:11.025Z,30.24
2018-03-01T21:34:39.011Z,30.06
2018-03-01T21:37:06.831Z,30.38
2018-03-01T21:39:34.799Z,30.69
2018-03-01T21:42:02.751Z,30.73
2018-03-01T21:44:30.955Z,30.47
2018-03-01T21:47:07.686Z,30.33
2018-03-01T21:49:35.761Z,30.37
2018-03-01T21:52:03.838Z,30.58
2018-03-01T21:54:31.923Z,30.66
2018-03-01T21:56:59.887Z,30.62
2018-03-01T21:59:28.086Z,31.02
2018-03-01T22:01:56.133Z,30.82
2018-03-01T22:04:24.121Z,30.72
2018-03-01T22:06:52.207Z,30.78
2018-03-01T22:09:20.169Z,31.04
2018-03-01T22:11:48.254Z,31.16
2018-03-01T22:14:16.211Z,31.24
2018-03-01T22:16:44.176Z,30.86
2018-03-01T22:19:12.740Z,30.95
2018-03-01T22:21:40.808Z,31.01
2018-03-01T22:24:08.891Z,31.16
2018-03-01T22:26:37.073Z,30.89
2018-03-01T22:29:05.299Z,31.20
2018-03-01T22:31:33.252Z,31.53
2018-03-01T22:34:01.217Z,31.14
2018-03-01T22:36:29.177Z,31.51
2018-03-01T22:38:57.140Z,31.01
2018-03-01T22:41:25.222Z,31.14
2018-03-01T22:43:53.180Z,31.25
2018-03-01T22:46:21.264Z,31.20
2018-03-01T22:48:49.225Z,31.08
2018-03-01T22:51:17.562Z,31.32
2018-03-01T22:53:45.593Z,31.50
2018-03-01T22:56:13.709Z,31.30
2018-03-01T22:58:41.794Z,31.70
2018-03-01T23:01:09.762Z,31.41
2018-03-01T23:03:37.954Z,31.39
2018-03-01T23:06:05.932Z,31.76
2018-03-01T23:08:33.874Z,31.97
2018-03-01T23:11:01.831Z,32.10
2018-03-01T23:13:29.799Z,31.79
2018-03-01T23:15:57.877Z,32.18
2018-03-01T23:18:25.716Z,31.96
2018-03-01T23:20:53.801Z,31.85
2018-03-01T23:23:21.760Z,31.77
2018-03-01T23:25:49.842Z,31.90
2018-03-01T23:28:17.970Z,32.35
2018-03-01T23:30:45.892Z,32.23
2018-03-01T23:33:13.725Z,32.24
2018-03-01T23:35:41.687Z,31.77
2018-03-01T23:38:09.715Z,32.00
2018-03-01T23:40:37.731Z,32.14
2018-03-01T23:43:05.703Z,32.30
2018-03-01T23:45:33.800Z,32.18
2018-03-01T23:48:01.743Z,32.08
2018-03-01T23:50:29.696Z,32.63
2018-03-01T23:52:57.535Z,32.67
2018-03-01T23:55:25.505Z,32.61
2018-03-01T23:57:53.836Z,32.45
